sensor_id;sensor_type;location;lat;lon;timestamp;P1;durP1;ratioP1;P2;durP2;ratioP2
3647;SDS011;1840;48.892;15.312;2023-12-20T00:01:45;2.73;;;1.40;;
3647;SDS011;1840;48.892;15.312;2023-12-20T00:04:13;3.90;;;1.43;;
3647;SDS011;1840;48.892;15.312;2023-12-20T00:06:43;2.80;;;1.83;;
3647;SDS011;1840;48.892;15.312;2023-12-20T00:09:11;3.20;;;1.70;;
3647;SDS011;1840;48.892;15.312;2023-12-20T00:11:39;8.50;;;2.10;;
3647;SDS011;1840;48.892;15.312;2023-12-20T00:14:11;2.53;;;1.50;;
3647;SDS011;1840;48.892;15.312;2023-12-20T00:16:39;2.40;;;1.40;;
3647;SDS011;1840;48.892;15.312;2023-12-20T00:19:07;2.90;;;1.67;;
3647;SDS011;1840;48.892;15.312;2023-12-20T00:21:35;18.63;;;2.73;;
3647;SDS011;1840;48.892;15.312;2023-12-20T00:24:04;2.30;;;1.50;;
3647;SDS011;1840;48.892;15.312;2023-12-20T00:26:33;4.17;;;1.40;;
3647;SDS011;1840;48.892;15.312;2023-12-20T00:29:01;3.43;;;1.70;;
3647;SDS011;1840;48.892;15.312;2023-12-20T00:31:29;2.20;;;1.40;;
3647;SDS011;1840;48.892;15.312;2023-12-20T00:33:57;2.73;;;1.47;;
3647;SDS011;1840;48.892;15.312;2023-12-20T00:36:25;4.60;;;1.40;;
3647;SDS011;1840;48.892;15.312;2023-12-20T00:38:53;3.37;;;1.80;;
3647;SDS011;1840;48.892;15.312;2023-12-20T00:41:23;2.53;;;1.37;;
3647;SDS011;1840;48.892;15.312;2023-12-20T00:43:51;2.37;;;1.23;;
3647;SDS011;1840;48.892;15.312;2023-12-20T00:46:19;3.70;;;1.60;;
3647;SDS011;1840;48.892;15.312;2023-12-20T00:48:47;5.23;;;1.70;;
3647;SDS011;1840;48.892;15.312;2023-12-20T00:51:15;2.50;;;1.50;;
3647;SDS011;1840;48.892;15.312;2023-12-20T00:53:43;3.50;;;1.90;;
3647;SDS011;1840;48.892;15.312;2023-12-20T00:56:11;2.47;;;1.30;;
3647;SDS011;1840;48.892;15.312;2023-12-20T00:58:40;2.47;;;1.50;;
3647;SDS011;1840;48.892;15.312;2023-12-20T01:01:08;2.47;;;1.57;;
3647;SDS011;1840;48.892;15.312;2023-12-20T01:03:38;3.30;;;1.47;;
3647;SDS011;1840;48.892;15.312;2023-12-20T01:06:06;2.00;;;1.30;;
3647;SDS011;1840;48.892;15.312;2023-12-20T01:08:34;2.60;;;1.90;;
3647;SDS011;1840;48.892;15.312;2023-12-20T01:11:03;3.13;;;1.60;;
3647;SDS011;1840;48.892;15.312;2023-12-20T01:13:31;2.90;;;1.63;;
3647;SDS011;1840;48.892;15.312;2023-12-20T01:16:01;2.70;;;1.53;;
3647;SDS011;1840;48.892;15.312;2023-12-20T01:18:29;3.10;;;1.50;;
3647;SDS011;1840;48.892;15.312;2023-12-20T01:21:01;3.90;;;1.70;;
3647;SDS011;1840;48.892;15.312;2023-12-20T01:23:29;3.13;;;1.70;;
3647;SDS011;1840;48.892;15.312;2023-12-20T01:25:58;5.23;;;1.90;;
3647;SDS011;1840;48.892;15.312;2023-12-20T01:28:26;5.97;;;1.87;;
3647;SDS011;1840;48.892;15.312;2023-12-20T01:30:55;2.97;;;1.60;;
3647;SDS011;1840;48.892;15.312;2023-12-20T01:33:24;2.50;;;1.50;;
3647;SDS011;1840;48.892;15.312;2023-12-20T01:35:52;4.73;;;1.77;;
3647;SDS011;1840;48.892;15.312;2023-12-20T01:38:20;4.60;;;2.17;;
3647;SDS011;1840;48.892;15.312;2023-12-20T01:40:48;2.17;;;1.50;;
3647;SDS011;1840;48.892;15.312;2023-12-20T01:43:17;5.40;;;1.77;;
3647;SDS011;1840;48.892;15.312;2023-12-20T01:45:45;3.70;;;1.70;;
3647;SDS011;1840;48.892;15.312;2023-12-20T01:48:14;2.90;;;1.83;;
3647;SDS011;1840;48.892;15.312;2023-12-20T01:50:44;2.83;;;1.83;;
3647;SDS011;1840;48.892;15.312;2023-12-20T01:53:13;4.27;;;1.60;;
3647;SDS011;1840;48.892;15.312;2023-12-20T01:55:42;3.60;;;2.10;;
3647;SDS011;1840;48.892;15.312;2023-12-20T01:58:11;2.70;;;1.57;;
3647;SDS011;1840;48.892;15.312;2023-12-20T02:00:41;2.53;;;1.37;;
3647;SDS011;1840;48.892;15.312;2023-12-20T02:03:09;3.03;;;1.77;;
3647;SDS011;1840;48.892;15.312;2023-12-20T02:05:37;3.07;;;1.90;;
3647;SDS011;1840;48.892;15.312;2023-12-20T02:08:07;3.73;;;1.93;;
3647;SDS011;1840;48.892;15.312;2023-12-20T02:10:35;3.13;;;1.70;;
3647;SDS011;1840;48.892;15.312;2023-12-20T02:13:04;3.60;;;1.90;;
3647;SDS011;1840;48.892;15.312;2023-12-20T02:15:32;3.57;;;2.00;;
3647;SDS011;1840;48.892;15.312;2023-12-20T02:18:00;2.80;;;1.63;;
3647;SDS011;1840;48.892;15.312;2023-12-20T02:20:28;3.27;;;1.70;;
3647;SDS011;1840;48.892;15.312;2023-12-20T02:22:57;3.63;;;2.20;;
3647;SDS011;1840;48.892;15.312;2023-12-20T02:25:25;5.60;;;2.07;;
3647;SDS011;1840;48.892;15.312;2023-12-20T02:27:53;3.60;;;1.90;;
3647;SDS011;1840;48.892;15.312;2023-12-20T02:30:22;6.53;;;2.17;;
3647;SDS011;1840;48.892;15.312;2023-12-20T02:32:50;3.07;;;1.60;;
3647;SDS011;1840;48.892;15.312;2023-12-20T02:35:20;3.57;;;2.10;;
3647;SDS011;1840;48.892;15.312;2023-12-20T02:37:48;3.10;;;1.70;;
3647;SDS011;1840;48.892;15.312;2023-12-20T02:40:18;4.33;;;2.20;;
3647;SDS011;1840;48.892;15.312;2023-12-20T02:42:46;12.60;;;2.40;;
3647;SDS011;1840;48.892;15.312;2023-12-20T02:45:14;3.27;;;1.93;;
3647;SDS011;1840;48.892;15.312;2023-12-20T02:47:42;5.07;;;2.50;;
3647;SDS011;1840;48.892;15.312;2023-12-20T02:50:10;3.33;;;2.00;;
3647;SDS011;1840;48.892;15.312;2023-12-20T02:52:39;3.43;;;2.10;;
3647;SDS011;1840;48.892;15.312;2023-12-20T02:55:07;3.13;;;1.90;;
3647;SDS011;1840;48.892;15.312;2023-12-20T02:57:36;2.77;;;1.77;;
3647;SDS011;1840;48.892;15.312;2023-12-20T03:00:09;3.90;;;1.80;;
3647;SDS011;1840;48.892;15.312;2023-12-20T03:02:37;2.37;;;1.60;;
3647;SDS011;1840;48.892;15.312;2023-12-20T03:05:06;4.60;;;1.80;;
3647;SDS011;1840;48.892;15.312;2023-12-20T03:07:36;3.57;;;1.90;;
3647;SDS011;1840;48.892;15.312;2023-12-20T03:10:05;3.93;;;2.00;;
3647;SDS011;1840;48.892;15.312;2023-12-20T03:12:47;3.63;;;1.60;;
3647;SDS011;1840;48.892;15.312;2023-12-20T03:15:15;2.80;;;1.73;;
3647;SDS011;1840;48.892;15.312;2023-12-20T03:17:43;4.03;;;1.67;;
3647;SDS011;1840;48.892;15.312;2023-12-20T03:20:12;2.70;;;1.90;;
3647;SDS011;1840;48.892;15.312;2023-12-20T03:22:40;3.63;;;2.17;;
3647;SDS011;1840;48.892;15.312;2023-12-20T03:25:08;5.33;;;2.10;;
3647;SDS011;1840;48.892;15.312;2023-12-20T03:27:36;2.60;;;1.50;;
3647;SDS011;1840;48.892;15.312;2023-12-20T03:30:07;6.60;;;2.37;;
3647;SDS011;1840;48.892;15.312;2023-12-20T03:32:36;8.07;;;3.43;;
3647;SDS011;1840;48.892;15.312;2023-12-20T03:35:05;4.47;;;2.43;;
3647;SDS011;1840;48.892;15.312;2023-12-20T03:37:34;3.50;;;2.20;;
3647;SDS011;1840;48.892;15.312;2023-12-20T03:40:03;4.60;;;2.20;;
3647;SDS011;1840;48.892;15.312;2023-12-20T03:42:32;3.70;;;2.20;;
3647;SDS011;1840;48.892;15.312;2023-12-20T03:45:00;3.57;;;2.33;;
3647;SDS011;1840;48.892;15.312;2023-12-20T03:47:29;4.53;;;3.00;;
3647;SDS011;1840;48.892;15.312;2023-12-20T03:49:57;5.87;;;2.90;;
3647;SDS011;1840;48.892;15.312;2023-12-20T03:52:25;5.80;;;2.50;;
3647;SDS011;1840;48.892;15.312;2023-12-20T03:54:54;4.70;;;2.87;;
3647;SDS011;1840;48.892;15.312;2023-12-20T03:57:22;4.20;;;2.83;;
3647;SDS011;1840;48.892;15.312;2023-12-20T03:59:50;5.43;;;3.17;;
3647;SDS011;1840;48.892;15.312;2023-12-20T04:02:18;5.80;;;2.97;;
3647;SDS011;1840;48.892;15.312;2023-12-20T04:04:47;5.10;;;3.03;;
3647;SDS011;1840;48.892;15.312;2023-12-20T04:07:15;4.90;;;3.33;;
3647;SDS011;1840;48.892;15.312;2023-12-20T04:09:43;6.87;;;3.30;;
3647;SDS011;1840;48.892;15.312;2023-12-20T04:12:11;6.00;;;3.13;;
3647;SDS011;1840;48.892;15.312;2023-12-20T04:14:39;7.70;;;3.60;;
3647;SDS011;1840;48.892;15.312;2023-12-20T04:17:07;6.10;;;3.97;;
3647;SDS011;1840;48.892;15.312;2023-12-20T04:19:36;7.60;;;4.30;;
3647;SDS011;1840;48.892;15.312;2023-12-20T04:22:05;7.83;;;4.30;;
3647;SDS011;1840;48.892;15.312;2023-12-20T04:24:33;6.30;;;3.70;;
3647;SDS011;1840;48.892;15.312;2023-12-20T04:27:01;9.80;;;5.20;;
3647;SDS011;1840;48.892;15.312;2023-12-20T04:29:30;7.73;;;5.27;;
3647;SDS011;1840;48.892;15.312;2023-12-20T04:31:58;7.77;;;4.73;;
3647;SDS011;1840;48.892;15.312;2023-12-20T04:34:26;9.40;;;4.83;;
3647;SDS011;1840;48.892;15.312;2023-12-20T04:36:54;8.13;;;4.80;;
3647;SDS011;1840;48.892;15.312;2023-12-20T04:39:24;7.53;;;5.07;;
3647;SDS011;1840;48.892;15.312;2023-12-20T04:41:52;8.43;;;5.20;;
3647;SDS011;1840;48.892;15.312;2023-12-20T04:44:20;9.83;;;5.50;;
3647;SDS011;1840;48.892;15.312;2023-12-20T04:46:48;8.00;;;5.33;;
3647;SDS011;1840;48.892;15.312;2023-12-20T04:49:17;10.57;;;5.50;;
3647;SDS011;1840;48.892;15.312;2023-12-20T04:51:45;12.43;;;5.87;;
3647;SDS011;1840;48.892;15.312;2023-12-20T04:54:14;12.43;;;5.53;;
3647;SDS011;1840;48.892;15.312;2023-12-20T04:56:43;12.37;;;5.90;;
3647;SDS011;1840;48.892;15.312;2023-12-20T04:59:11;10.43;;;6.00;;
3647;SDS011;1840;48.892;15.312;2023-12-20T05:01:39;12.73;;;6.50;;
3647;SDS011;1840;48.892;15.312;2023-12-20T05:04:08;13.27;;;7.07;;
3647;SDS011;1840;48.892;15.312;2023-12-20T05:06:36;14.07;;;6.10;;
3647;SDS011;1840;48.892;15.312;2023-12-20T05:09:04;16.80;;;7.03;;
3647;SDS011;1840;48.892;15.312;2023-12-20T05:11:32;8.80;;;5.97;;
3647;SDS011;1840;48.892;15.312;2023-12-20T05:14:02;10.57;;;6.20;;
3647;SDS011;1840;48.892;15.312;2023-12-20T05:16:31;10.27;;;6.23;;
3647;SDS011;1840;48.892;15.312;2023-12-20T05:18:59;9.13;;;6.27;;
3647;SDS011;1840;48.892;15.312;2023-12-20T05:21:28;9.73;;;6.10;;
3647;SDS011;1840;48.892;15.312;2023-12-20T05:23:57;10.60;;;6.00;;
3647;SDS011;1840;48.892;15.312;2023-12-20T05:26:25;11.13;;;6.33;;
3647;SDS011;1840;48.892;15.312;2023-12-20T05:28:53;10.83;;;6.20;;
3647;SDS011;1840;48.892;15.312;2023-12-20T05:31:23;10.63;;;6.80;;
3647;SDS011;1840;48.892;15.312;2023-12-20T05:33:51;8.87;;;6.13;;
3647;SDS011;1840;48.892;15.312;2023-12-20T05:36:20;11.33;;;6.63;;
3647;SDS011;1840;48.892;15.312;2023-12-20T05:38:49;11.73;;;6.73;;
3647;SDS011;1840;48.892;15.312;2023-12-20T05:41:17;11.70;;;6.33;;
3647;SDS011;1840;48.892;15.312;2023-12-20T05:43:45;17.53;;;7.60;;
3647;SDS011;1840;48.892;15.312;2023-12-20T05:46:13;9.27;;;6.20;;
3647;SDS011;1840;48.892;15.312;2023-12-20T05:48:43;14.17;;;6.90;;
3647;SDS011;1840;48.892;15.312;2023-12-20T05:51:12;12.30;;;6.83;;
3647;SDS011;1840;48.892;15.312;2023-12-20T05:53:40;14.33;;;7.60;;
3647;SDS011;1840;48.892;15.312;2023-12-20T05:56:08;9.20;;;6.70;;
3647;SDS011;1840;48.892;15.312;2023-12-20T05:58:38;16.33;;;6.63;;
3647;SDS011;1840;48.892;15.312;2023-12-20T06:01:06;17.00;;;8.10;;
3647;SDS011;1840;48.892;15.312;2023-12-20T06:03:35;10.90;;;6.90;;
3647;SDS011;1840;48.892;15.312;2023-12-20T06:06:08;15.50;;;8.27;;
3647;SDS011;1840;48.892;15.312;2023-12-20T06:08:42;13.13;;;7.30;;
3647;SDS011;1840;48.892;15.312;2023-12-20T06:11:11;10.83;;;7.00;;
3647;SDS011;1840;48.892;15.312;2023-12-20T06:13:40;13.27;;;7.97;;
3647;SDS011;1840;48.892;15.312;2023-12-20T06:16:08;20.20;;;7.77;;
3647;SDS011;1840;48.892;15.312;2023-12-20T06:18:36;18.80;;;9.20;;
3647;SDS011;1840;48.892;15.312;2023-12-20T06:21:04;14.30;;;7.40;;
3647;SDS011;1840;48.892;15.312;2023-12-20T06:23:35;13.77;;;8.17;;
3647;SDS011;1840;48.892;15.312;2023-12-20T06:26:03;15.30;;;8.07;;
3647;SDS011;1840;48.892;15.312;2023-12-20T06:28:32;11.37;;;7.17;;
3647;SDS011;1840;48.892;15.312;2023-12-20T06:31:00;13.63;;;8.47;;
3647;SDS011;1840;48.892;15.312;2023-12-20T06:33:29;16.80;;;7.20;;
3647;SDS011;1840;48.892;15.312;2023-12-20T06:35:58;12.20;;;7.10;;
3647;SDS011;1840;48.892;15.312;2023-12-20T06:38:27;10.10;;;6.30;;
3647;SDS011;1840;48.892;15.312;2023-12-20T06:40:56;12.87;;;7.90;;
3647;SDS011;1840;48.892;15.312;2023-12-20T06:43:26;12.40;;;6.83;;
3647;SDS011;1840;48.892;15.312;2023-12-20T06:46:12;10.30;;;7.27;;
3647;SDS011;1840;48.892;15.312;2023-12-20T06:48:40;9.63;;;6.87;;
3647;SDS011;1840;48.892;15.312;2023-12-20T06:51:10;13.93;;;6.33;;
3647;SDS011;1840;48.892;15.312;2023-12-20T06:53:39;10.73;;;6.33;;
3647;SDS011;1840;48.892;15.312;2023-12-20T06:56:10;10.57;;;6.00;;
3647;SDS011;1840;48.892;15.312;2023-12-20T06:58:43;8.63;;;5.90;;
3647;SDS011;1840;48.892;15.312;2023-12-20T07:01:11;15.70;;;6.33;;
3647;SDS011;1840;48.892;15.312;2023-12-20T07:03:40;8.03;;;6.27;;
3647;SDS011;1840;48.892;15.312;2023-12-20T07:06:08;10.73;;;6.37;;
3647;SDS011;1840;48.892;15.312;2023-12-20T07:08:37;11.53;;;5.90;;
3647;SDS011;1840;48.892;15.312;2023-12-20T07:11:05;10.47;;;5.93;;
3647;SDS011;1840;48.892;15.312;2023-12-20T07:13:34;8.70;;;6.20;;
3647;SDS011;1840;48.892;15.312;2023-12-20T07:16:03;10.80;;;6.27;;
3647;SDS011;1840;48.892;15.312;2023-12-20T07:18:31;11.33;;;5.93;;
3647;SDS011;1840;48.892;15.312;2023-12-20T07:20:59;8.83;;;5.87;;
3647;SDS011;1840;48.892;15.312;2023-12-20T07:23:27;8.30;;;5.73;;
3647;SDS011;1840;48.892;15.312;2023-12-20T07:25:55;8.07;;;6.03;;
3647;SDS011;1840;48.892;15.312;2023-12-20T07:28:24;10.90;;;6.03;;
3647;SDS011;1840;48.892;15.312;2023-12-20T07:30:54;12.43;;;6.30;;
3647;SDS011;1840;48.892;15.312;2023-12-20T07:33:23;10.60;;;6.93;;
3647;SDS011;1840;48.892;15.312;2023-12-20T07:35:52;12.33;;;7.37;;
3647;SDS011;1840;48.892;15.312;2023-12-20T07:38:20;9.67;;;6.37;;
3647;SDS011;1840;48.892;15.312;2023-12-20T07:40:48;9.63;;;6.37;;
3647;SDS011;1840;48.892;15.312;2023-12-20T07:43:17;9.40;;;6.17;;
3647;SDS011;1840;48.892;15.312;2023-12-20T07:45:45;7.80;;;5.37;;
3647;SDS011;1840;48.892;15.312;2023-12-20T07:48:15;8.53;;;5.97;;
3647;SDS011;1840;48.892;15.312;2023-12-20T07:50:44;12.63;;;5.80;;
3647;SDS011;1840;48.892;15.312;2023-12-20T07:53:12;7.63;;;5.57;;
3647;SDS011;1840;48.892;15.312;2023-12-20T07:55:41;8.47;;;6.13;;
3647;SDS011;1840;48.892;15.312;2023-12-20T07:58:09;9.87;;;6.10;;
3647;SDS011;1840;48.892;15.312;2023-12-20T08:00:38;9.93;;;6.50;;
3647;SDS011;1840;48.892;15.312;2023-12-20T08:03:06;10.40;;;6.83;;
3647;SDS011;1840;48.892;15.312;2023-12-20T08:05:35;8.37;;;6.13;;
3647;SDS011;1840;48.892;15.312;2023-12-20T08:08:03;7.57;;;5.63;;
3647;SDS011;1840;48.892;15.312;2023-12-20T08:10:32;12.40;;;6.60;;
3647;SDS011;1840;48.892;15.312;2023-12-20T08:13:00;8.33;;;6.17;;
3647;SDS011;1840;48.892;15.312;2023-12-20T08:15:29;6.00;;;4.67;;
3647;SDS011;1840;48.892;15.312;2023-12-20T08:17:57;6.20;;;4.77;;
3647;SDS011;1840;48.892;15.312;2023-12-20T08:20:28;7.30;;;4.90;;
3647;SDS011;1840;48.892;15.312;2023-12-20T08:23:07;6.73;;;4.93;;
3647;SDS011;1840;48.892;15.312;2023-12-20T08:25:35;11.57;;;5.20;;
3647;SDS011;1840;48.892;15.312;2023-12-20T08:28:03;6.60;;;5.07;;
3647;SDS011;1840;48.892;15.312;2023-12-20T08:30:32;7.60;;;5.23;;
3647;SDS011;1840;48.892;15.312;2023-12-20T08:33:00;6.40;;;4.80;;
3647;SDS011;1840;48.892;15.312;2023-12-20T08:35:32;8.13;;;5.10;;
3647;SDS011;1840;48.892;15.312;2023-12-20T08:38:00;6.07;;;4.43;;
3647;SDS011;1840;48.892;15.312;2023-12-20T08:40:30;7.13;;;4.90;;
3647;SDS011;1840;48.892;15.312;2023-12-20T08:42:58;9.03;;;5.63;;
3647;SDS011;1840;48.892;15.312;2023-12-20T08:45:26;11.20;;;6.73;;
3647;SDS011;1840;48.892;15.312;2023-12-20T08:47:55;7.23;;;4.87;;
3647;SDS011;1840;48.892;15.312;2023-12-20T08:50:27;7.23;;;4.50;;
3647;SDS011;1840;48.892;15.312;2023-12-20T08:52:56;7.50;;;5.10;;
3647;SDS011;1840;48.892;15.312;2023-12-20T08:55:25;6.80;;;5.37;;
3647;SDS011;1840;48.892;15.312;2023-12-20T08:57:56;8.17;;;4.80;;
3647;SDS011;1840;48.892;15.312;2023-12-20T09:00:25;7.47;;;5.37;;
3647;SDS011;1840;48.892;15.312;2023-12-20T09:02:54;6.00;;;4.50;;
3647;SDS011;1840;48.892;15.312;2023-12-20T09:05:22;5.27;;;4.23;;
3647;SDS011;1840;48.892;15.312;2023-12-20T09:07:51;7.53;;;4.90;;
3647;SDS011;1840;48.892;15.312;2023-12-20T09:10:20;5.77;;;4.43;;
3647;SDS011;1840;48.892;15.312;2023-12-20T09:12:53;6.30;;;4.20;;
3647;SDS011;1840;48.892;15.312;2023-12-20T09:15:25;7.00;;;4.17;;
3647;SDS011;1840;48.892;15.312;2023-12-20T09:17:53;4.73;;;3.93;;
3647;SDS011;1840;48.892;15.312;2023-12-20T09:20:23;5.43;;;3.40;;
3647;SDS011;1840;48.892;15.312;2023-12-20T09:22:51;3.87;;;3.40;;
3647;SDS011;1840;48.892;15.312;2023-12-20T09:25:19;4.30;;;3.77;;
3647;SDS011;1840;48.892;15.312;2023-12-20T09:27:48;4.63;;;3.20;;
3647;SDS011;1840;48.892;15.312;2023-12-20T09:30:16;6.70;;;3.40;;
3647;SDS011;1840;48.892;15.312;2023-12-20T09:32:54;3.53;;;2.90;;
3647;SDS011;1840;48.892;15.312;2023-12-20T09:35:22;4.23;;;3.00;;
3647;SDS011;1840;48.892;15.312;2023-12-20T09:37:51;5.33;;;3.20;;
3647;SDS011;1840;48.892;15.312;2023-12-20T09:40:19;3.87;;;2.67;;
3647;SDS011;1840;48.892;15.312;2023-12-20T09:42:48;3.83;;;2.80;;
3647;SDS011;1840;48.892;15.312;2023-12-20T09:45:23;3.40;;;2.93;;
3647;SDS011;1840;48.892;15.312;2023-12-20T09:47:52;3.53;;;2.33;;
3647;SDS011;1840;48.892;15.312;2023-12-20T09:50:26;3.17;;;2.53;;
3647;SDS011;1840;48.892;15.312;2023-12-20T09:52:57;2.77;;;2.30;;
3647;SDS011;1840;48.892;15.312;2023-12-20T09:55:26;2.40;;;1.87;;
3647;SDS011;1840;48.892;15.312;2023-12-20T09:57:57;2.43;;;2.00;;
3647;SDS011;1840;48.892;15.312;2023-12-20T10:00:25;1.97;;;1.80;;
3647;SDS011;1840;48.892;15.312;2023-12-20T10:02:56;4.50;;;2.10;;
3647;SDS011;1840;48.892;15.312;2023-12-20T10:05:26;1.50;;;1.33;;
3647;SDS011;1840;48.892;15.312;2023-12-20T10:07:56;2.67;;;1.83;;
3647;SDS011;1840;48.892;15.312;2023-12-20T10:10:24;3.50;;;1.70;;
3647;SDS011;1840;48.892;15.312;2023-12-20T10:13:08;2.73;;;2.10;;
3647;SDS011;1840;48.892;15.312;2023-12-20T10:15:37;1.40;;;1.23;;
3647;SDS011;1840;48.892;15.312;2023-12-20T10:18:09;1.53;;;1.33;;
3647;SDS011;1840;48.892;15.312;2023-12-20T10:20:40;2.37;;;1.67;;
3647;SDS011;1840;48.892;15.312;2023-12-20T10:23:09;1.73;;;1.60;;
3647;SDS011;1840;48.892;15.312;2023-12-20T10:25:38;2.73;;;1.37;;
3647;SDS011;1840;48.892;15.312;2023-12-20T10:28:08;1.47;;;1.27;;
3647;SDS011;1840;48.892;15.312;2023-12-20T10:30:38;1.57;;;1.47;;
3647;SDS011;1840;48.892;15.312;2023-12-20T10:33:09;1.70;;;1.50;;
3647;SDS011;1840;48.892;15.312;2023-12-20T10:35:38;1.60;;;1.40;;
3647;SDS011;1840;48.892;15.312;2023-12-20T10:38:11;1.40;;;1.20;;
3647;SDS011;1840;48.892;15.312;2023-12-20T10:40:41;1.60;;;1.30;;
3647;SDS011;1840;48.892;15.312;2023-12-20T10:43:10;1.37;;;1.27;;
3647;SDS011;1840;48.892;15.312;2023-12-20T10:45:38;1.20;;;1.10;;
3647;SDS011;1840;48.892;15.312;2023-12-20T10:48:10;1.63;;;1.50;;
3647;SDS011;1840;48.892;15.312;2023-12-20T10:50:39;1.57;;;1.17;;
3647;SDS011;1840;48.892;15.312;2023-12-20T10:53:09;2.67;;;1.30;;
3647;SDS011;1840;48.892;15.312;2023-12-20T10:55:38;1.70;;;1.30;;
3647;SDS011;1840;48.892;15.312;2023-12-20T10:58:09;1.90;;;1.10;;
3647;SDS011;1840;48.892;15.312;2023-12-20T11:00:40;1.00;;;0.90;;
3647;SDS011;1840;48.892;15.312;2023-12-20T11:03:13;1.43;;;1.33;;
3647;SDS011;1840;48.892;15.312;2023-12-20T11:05:46;3.23;;;1.43;;
3647;SDS011;1840;48.892;15.312;2023-12-20T11:08:25;1.03;;;0.90;;
3647;SDS011;1840;48.892;15.312;2023-12-20T11:11:02;1.10;;;0.90;;
3647;SDS011;1840;48.892;15.312;2023-12-20T11:13:35;1.40;;;1.30;;
3647;SDS011;1840;48.892;15.312;2023-12-20T11:16:08;1.90;;;1.10;;
3647;SDS011;1840;48.892;15.312;2023-12-20T11:18:38;1.30;;;1.20;;
3647;SDS011;1840;48.892;15.312;2023-12-20T11:21:12;1.20;;;1.10;;
3647;SDS011;1840;48.892;15.312;2023-12-20T11:23:41;2.03;;;1.30;;
3647;SDS011;1840;48.892;15.312;2023-12-20T11:26:10;1.40;;;1.03;;
3647;SDS011;1840;48.892;15.312;2023-12-20T11:28:38;1.17;;;1.00;;
3647;SDS011;1840;48.892;15.312;2023-12-20T11:31:07;1.63;;;1.30;;
3647;SDS011;1840;48.892;15.312;2023-12-20T11:33:38;2.43;;;1.20;;
3647;SDS011;1840;48.892;15.312;2023-12-20T11:36:12;1.13;;;0.90;;
3647;SDS011;1840;48.892;15.312;2023-12-20T11:41:27;1.37;;;1.10;;
3647;SDS011;1840;48.892;15.312;2023-12-20T11:43:56;1.40;;;1.10;;
3647;SDS011;1840;48.892;15.312;2023-12-20T11:46:27;1.50;;;1.03;;
3647;SDS011;1840;48.892;15.312;2023-12-20T11:48:56;1.50;;;1.20;;
3647;SDS011;1840;48.892;15.312;2023-12-20T11:51:24;1.07;;;0.97;;
3647;SDS011;1840;48.892;15.312;2023-12-20T11:53:54;1.00;;;0.90;;
3647;SDS011;1840;48.892;15.312;2023-12-20T11:56:23;2.20;;;1.30;;
3647;SDS011;1840;48.892;15.312;2023-12-20T11:58:51;1.37;;;0.90;;
3647;SDS011;1840;48.892;15.312;2023-12-20T12:01:24;1.50;;;1.00;;
3647;SDS011;1840;48.892;15.312;2023-12-20T12:04:03;1.50;;;0.90;;
3647;SDS011;1840;48.892;15.312;2023-12-20T12:06:32;1.10;;;1.00;;
3647;SDS011;1840;48.892;15.312;2023-12-20T12:09:00;1.27;;;1.00;;
3647;SDS011;1840;48.892;15.312;2023-12-20T12:11:31;2.00;;;1.23;;
3647;SDS011;1840;48.892;15.312;2023-12-20T12:14:00;1.77;;;1.20;;
3647;SDS011;1840;48.892;15.312;2023-12-20T12:16:28;1.37;;;1.00;;
3647;SDS011;1840;48.892;15.312;2023-12-20T12:19:01;1.37;;;1.00;;
3647;SDS011;1840;48.892;15.312;2023-12-20T12:21:32;1.10;;;1.00;;
3647;SDS011;1840;48.892;15.312;2023-12-20T12:24:07;1.20;;;1.00;;
3647;SDS011;1840;48.892;15.312;2023-12-20T12:26:36;1.10;;;0.90;;
3647;SDS011;1840;48.892;15.312;2023-12-20T12:29:07;7.57;;;4.43;;
3647;SDS011;1840;48.892;15.312;2023-12-20T12:31:36;2.27;;;1.77;;
3647;SDS011;1840;48.892;15.312;2023-12-20T12:34:06;2.73;;;1.60;;
3647;SDS011;1840;48.892;15.312;2023-12-20T12:36:36;1.30;;;0.87;;
3647;SDS011;1840;48.892;15.312;2023-12-20T12:39:04;1.43;;;0.90;;
3647;SDS011;1840;48.892;15.312;2023-12-20T12:41:33;1.30;;;1.17;;
3647;SDS011;1840;48.892;15.312;2023-12-20T12:44:01;1.20;;;1.03;;
3647;SDS011;1840;48.892;15.312;2023-12-20T12:46:46;1.10;;;1.00;;
3647;SDS011;1840;48.892;15.312;2023-12-20T12:49:19;1.40;;;1.10;;
3647;SDS011;1840;48.892;15.312;2023-12-20T12:51:49;1.00;;;0.90;;
3647;SDS011;1840;48.892;15.312;2023-12-20T12:54:18;1.10;;;0.97;;
3647;SDS011;1840;48.892;15.312;2023-12-20T12:56:49;2.30;;;1.20;;
3647;SDS011;1840;48.892;15.312;2023-12-20T12:59:19;1.67;;;1.10;;
3647;SDS011;1840;48.892;15.312;2023-12-20T13:01:47;1.00;;;0.80;;
3647;SDS011;1840;48.892;15.312;2023-12-20T13:04:15;1.50;;;1.07;;
3647;SDS011;1840;48.892;15.312;2023-12-20T13:06:45;1.93;;;1.03;;
3647;SDS011;1840;48.892;15.312;2023-12-20T13:09:13;2.10;;;1.27;;
3647;SDS011;1840;48.892;15.312;2023-12-20T13:11:42;1.67;;;1.40;;
3647;SDS011;1840;48.892;15.312;2023-12-20T13:14:10;1.87;;;1.40;;
3647;SDS011;1840;48.892;15.312;2023-12-20T13:16:41;4.93;;;1.40;;
3647;SDS011;1840;48.892;15.312;2023-12-20T13:19:11;1.93;;;1.40;;
3647;SDS011;1840;48.892;15.312;2023-12-20T13:21:40;1.60;;;1.37;;
3647;SDS011;1840;48.892;15.312;2023-12-20T13:24:10;2.43;;;1.50;;
3647;SDS011;1840;48.892;15.312;2023-12-20T13:26:38;1.83;;;1.73;;
3647;SDS011;1840;48.892;15.312;2023-12-20T13:29:06;2.40;;;1.37;;
3647;SDS011;1840;48.892;15.312;2023-12-20T13:31:34;1.50;;;1.30;;
3647;SDS011;1840;48.892;15.312;2023-12-20T13:34:04;2.60;;;1.60;;
3647;SDS011;1840;48.892;15.312;2023-12-20T13:36:33;1.30;;;1.20;;
3647;SDS011;1840;48.892;15.312;2023-12-20T13:39:03;3.13;;;1.93;;
3647;SDS011;1840;48.892;15.312;2023-12-20T13:41:33;2.77;;;1.33;;
3647;SDS011;1840;48.892;15.312;2023-12-20T13:44:01;2.87;;;1.40;;
3647;SDS011;1840;48.892;15.312;2023-12-20T13:46:30;1.90;;;1.37;;
3647;SDS011;1840;48.892;15.312;2023-12-20T13:48:58;1.87;;;1.57;;
3647;SDS011;1840;48.892;15.312;2023-12-20T13:51:28;3.83;;;2.10;;
3647;SDS011;1840;48.892;15.312;2023-12-20T13:53:56;2.70;;;2.00;;
3647;SDS011;1840;48.892;15.312;2023-12-20T13:56:28;1.50;;;1.40;;
3647;SDS011;1840;48.892;15.312;2023-12-20T13:59:01;1.70;;;1.50;;
3647;SDS011;1840;48.892;15.312;2023-12-20T14:01:29;2.07;;;1.70;;
3647;SDS011;1840;48.892;15.312;2023-12-20T14:04:01;1.60;;;1.40;;
3647;SDS011;1840;48.892;15.312;2023-12-20T14:06:33;2.10;;;1.47;;
3647;SDS011;1840;48.892;15.312;2023-12-20T14:09:01;3.67;;;1.90;;
3647;SDS011;1840;48.892;15.312;2023-12-20T14:11:29;1.50;;;1.20;;
3647;SDS011;1840;48.892;15.312;2023-12-20T14:13:58;1.40;;;1.30;;
3647;SDS011;1840;48.892;15.312;2023-12-20T14:16:31;1.70;;;1.27;;
3647;SDS011;1840;48.892;15.312;2023-12-20T14:19:00;3.47;;;1.57;;
3647;SDS011;1840;48.892;15.312;2023-12-20T14:21:29;1.50;;;1.40;;
3647;SDS011;1840;48.892;15.312;2023-12-20T14:23:58;1.30;;;1.20;;
3647;SDS011;1840;48.892;15.312;2023-12-20T14:26:26;1.53;;;1.30;;
3647;SDS011;1840;48.892;15.312;2023-12-20T14:28:55;1.40;;;1.30;;
3647;SDS011;1840;48.892;15.312;2023-12-20T14:31:24;1.80;;;1.30;;
3647;SDS011;1840;48.892;15.312;2023-12-20T14:33:53;1.83;;;1.27;;
3647;SDS011;1840;48.892;15.312;2023-12-20T14:36:22;2.43;;;1.30;;
3647;SDS011;1840;48.892;15.312;2023-12-20T14:38:50;1.37;;;1.17;;
3647;SDS011;1840;48.892;15.312;2023-12-20T14:41:18;1.33;;;1.10;;
3647;SDS011;1840;48.892;15.312;2023-12-20T14:43:46;1.50;;;1.17;;
3647;SDS011;1840;48.892;15.312;2023-12-20T14:46:18;2.07;;;0.90;;
3647;SDS011;1840;48.892;15.312;2023-12-20T14:48:47;1.50;;;1.17;;
3647;SDS011;1840;48.892;15.312;2023-12-20T14:51:17;1.80;;;1.47;;
3647;SDS011;1840;48.892;15.312;2023-12-20T14:53:46;2.60;;;1.37;;
3647;SDS011;1840;48.892;15.312;2023-12-20T14:56:14;1.43;;;1.00;;
3647;SDS011;1840;48.892;15.312;2023-12-20T14:58:43;1.20;;;1.10;;
3647;SDS011;1840;48.892;15.312;2023-12-20T15:01:11;1.80;;;1.33;;
3647;SDS011;1840;48.892;15.312;2023-12-20T15:03:40;2.13;;;1.30;;
3647;SDS011;1840;48.892;15.312;2023-12-20T15:06:08;1.30;;;1.20;;
3647;SDS011;1840;48.892;15.312;2023-12-20T15:08:40;1.60;;;1.20;;
3647;SDS011;1840;48.892;15.312;2023-12-20T15:11:09;1.63;;;1.10;;
3647;SDS011;1840;48.892;15.312;2023-12-20T15:13:37;3.50;;;1.10;;
3647;SDS011;1840;48.892;15.312;2023-12-20T15:16:06;1.60;;;1.10;;